sensor_id;sensor_type;location;lat;lon;timestamp;P1;durP1;ratioP1;P2;durP2;ratioP2
4504;SDS011;2265;48.794;9.520;2023-12-22T00:00:31;1.80;;;1.60;;
4504;SDS011;2265;48.794;9.520;2023-12-22T00:02:58;2.17;;;1.50;;
4504;SDS011;2265;48.794;9.520;2023-12-22T00:05:25;4.03;;;1.60;;
4504;SDS011;2265;48.794;9.520;2023-12-22T00:07:53;1.90;;;1.57;;
4504;SDS011;2265;48.794;9.520;2023-12-22T00:10:20;1.83;;;1.63;;
4504;SDS011;2265;48.794;9.520;2023-12-22T00:12:48;2.57;;;1.67;;
4504;SDS011;2265;48.794;9.520;2023-12-22T00:15:15;5.73;;;1.93;;
4504;SDS011;2265;48.794;9.520;2023-12-22T00:17:42;2.70;;;1.50;;
4504;SDS011;2265;48.794;9.520;2023-12-22T00:20:10;1.97;;;1.57;;
4504;SDS011;2265;48.794;9.520;2023-12-22T00:22:39;4.70;;;1.83;;
4504;SDS011;2265;48.794;9.520;2023-12-22T00:25:08;4.30;;;2.00;;
4504;SDS011;2265;48.794;9.520;2023-12-22T00:27:35;5.53;;;1.60;;
4504;SDS011;2265;48.794;9.520;2023-12-22T00:30:02;3.33;;;1.60;;
4504;SDS011;2265;48.794;9.520;2023-12-22T00:32:29;2.13;;;1.60;;
4504;SDS011;2265;48.794;9.520;2023-12-22T00:34:57;4.60;;;1.83;;
4504;SDS011;2265;48.794;9.520;2023-12-22T00:37:24;7.37;;;1.60;;
4504;SDS011;2265;48.794;9.520;2023-12-22T00:39:56;1.30;;;1.30;;
4504;SDS011;2265;48.794;9.520;2023-12-22T00:42:25;2.90;;;1.73;;
4504;SDS011;2265;48.794;9.520;2023-12-22T00:44:52;2.63;;;1.60;;
4504;SDS011;2265;48.794;9.520;2023-12-22T00:47:19;2.80;;;1.70;;
4504;SDS011;2265;48.794;9.520;2023-12-22T00:49:47;1.57;;;1.47;;
4504;SDS011;2265;48.794;9.520;2023-12-22T00:52:14;2.13;;;1.23;;
4504;SDS011;2265;48.794;9.520;2023-12-22T00:54:41;5.00;;;1.67;;
4504;SDS011;2265;48.794;9.520;2023-12-22T00:57:08;12.97;;;1.50;;
4504;SDS011;2265;48.794;9.520;2023-12-22T00:59:39;1.40;;;1.30;;
4504;SDS011;2265;48.794;9.520;2023-12-22T01:02:10;1.40;;;1.30;;
4504;SDS011;2265;48.794;9.520;2023-12-22T01:04:37;1.33;;;1.17;;
4504;SDS011;2265;48.794;9.520;2023-12-22T01:07:04;1.33;;;1.13;;
4504;SDS011;2265;48.794;9.520;2023-12-22T01:09:33;1.30;;;1.20;;
4504;SDS011;2265;48.794;9.520;2023-12-22T01:12:01;1.20;;;1.13;;
4504;SDS011;2265;48.794;9.520;2023-12-22T01:14:29;1.90;;;1.40;;
4504;SDS011;2265;48.794;9.520;2023-12-22T01:16:57;1.50;;;1.10;;
4504;SDS011;2265;48.794;9.520;2023-12-22T01:19:25;1.60;;;1.20;;
4504;SDS011;2265;48.794;9.520;2023-12-22T01:21:52;1.50;;;1.30;;
4504;SDS011;2265;48.794;9.520;2023-12-22T01:24:20;1.60;;;1.27;;
4504;SDS011;2265;48.794;9.520;2023-12-22T01:26:47;1.77;;;1.40;;
4504;SDS011;2265;48.794;9.520;2023-12-22T01:29:17;1.50;;;1.20;;
4504;SDS011;2265;48.794;9.520;2023-12-22T01:31:44;1.60;;;1.33;;
4504;SDS011;2265;48.794;9.520;2023-12-22T01:34:13;1.70;;;1.30;;
4504;SDS011;2265;48.794;9.520;2023-12-22T01:36:40;1.30;;;1.30;;
4504;SDS011;2265;48.794;9.520;2023-12-22T01:39:07;2.80;;;1.27;;
4504;SDS011;2265;48.794;9.520;2023-12-22T01:41:34;2.03;;;1.40;;
4504;SDS011;2265;48.794;9.520;2023-12-22T01:44:01;1.60;;;1.30;;
4504;SDS011;2265;48.794;9.520;2023-12-22T01:46:28;1.30;;;1.20;;
4504;SDS011;2265;48.794;9.520;2023-12-22T01:48:55;2.37;;;1.40;;
4504;SDS011;2265;48.794;9.520;2023-12-22T01:51:27;1.50;;;1.20;;
4504;SDS011;2265;48.794;9.520;2023-12-22T01:53:55;2.60;;;1.50;;
4504;SDS011;2265;48.794;9.520;2023-12-22T01:56:22;2.33;;;1.60;;
4504;SDS011;2265;48.794;9.520;2023-12-22T01:58:50;1.50;;;1.30;;
4504;SDS011;2265;48.794;9.520;2023-12-22T02:01:19;1.80;;;1.40;;
4504;SDS011;2265;48.794;9.520;2023-12-22T02:03:46;4.60;;;1.60;;
4504;SDS011;2265;48.794;9.520;2023-12-22T02:06:17;6.30;;;1.63;;
4504;SDS011;2265;48.794;9.520;2023-12-22T02:08:46;2.30;;;1.40;;
4504;SDS011;2265;48.794;9.520;2023-12-22T02:11:14;2.13;;;1.60;;
4504;SDS011;2265;48.794;9.520;2023-12-22T02:13:41;7.33;;;1.80;;
4504;SDS011;2265;48.794;9.520;2023-12-22T02:16:11;1.40;;;1.30;;
4504;SDS011;2265;48.794;9.520;2023-12-22T02:18:45;2.20;;;1.40;;
4504;SDS011;2265;48.794;9.520;2023-12-22T02:21:16;5.03;;;1.63;;
4504;SDS011;2265;48.794;9.520;2023-12-22T02:23:44;7.33;;;1.40;;
4504;SDS011;2265;48.794;9.520;2023-12-22T02:26:17;3.53;;;1.70;;
4504;SDS011;2265;48.794;9.520;2023-12-22T02:28:50;8.40;;;1.50;;
4504;SDS011;2265;48.794;9.520;2023-12-22T02:31:21;3.33;;;1.57;;
4504;SDS011;2265;48.794;9.520;2023-12-22T02:33:54;1.80;;;1.30;;
4504;SDS011;2265;48.794;9.520;2023-12-22T02:36:23;2.87;;;1.43;;
4504;SDS011;2265;48.794;9.520;2023-12-22T02:38:53;1.60;;;1.30;;
4504;SDS011;2265;48.794;9.520;2023-12-22T02:41:22;3.60;;;1.53;;
4504;SDS011;2265;48.794;9.520;2023-12-22T02:43:49;1.70;;;1.20;;
4504;SDS011;2265;48.794;9.520;2023-12-22T02:46:17;6.53;;;1.50;;
4504;SDS011;2265;48.794;9.520;2023-12-22T02:48:44;1.93;;;1.30;;
4504;SDS011;2265;48.794;9.520;2023-12-22T02:51:11;4.73;;;1.50;;
4504;SDS011;2265;48.794;9.520;2023-12-22T02:53:38;5.43;;;1.37;;
4504;SDS011;2265;48.794;9.520;2023-12-22T02:56:07;1.37;;;1.20;;
4504;SDS011;2265;48.794;9.520;2023-12-22T02:58:34;1.97;;;1.37;;
4504;SDS011;2265;48.794;9.520;2023-12-22T03:01:01;1.40;;;1.30;;
4504;SDS011;2265;48.794;9.520;2023-12-22T03:03:29;1.83;;;1.30;;
4504;SDS011;2265;48.794;9.520;2023-12-22T03:05:56;3.23;;;1.30;;
4504;SDS011;2265;48.794;9.520;2023-12-22T03:08:23;1.50;;;1.30;;
4504;SDS011;2265;48.794;9.520;2023-12-22T03:10:50;2.63;;;1.53;;
4504;SDS011;2265;48.794;9.520;2023-12-22T03:13:18;2.80;;;1.60;;
4504;SDS011;2265;48.794;9.520;2023-12-22T03:15:45;2.17;;;1.60;;
4504;SDS011;2265;48.794;9.520;2023-12-22T03:18:13;3.53;;;1.50;;
4504;SDS011;2265;48.794;9.520;2023-12-22T03:20:41;4.70;;;1.50;;
4504;SDS011;2265;48.794;9.520;2023-12-22T03:23:08;1.83;;;1.60;;
4504;SDS011;2265;48.794;9.520;2023-12-22T03:25:35;2.50;;;1.50;;
4504;SDS011;2265;48.794;9.520;2023-12-22T03:28:04;3.33;;;1.60;;
4504;SDS011;2265;48.794;9.520;2023-12-22T03:33:03;2.53;;;1.47;;
4504;SDS011;2265;48.794;9.520;2023-12-22T03:35:31;2.40;;;1.70;;
4504;SDS011;2265;48.794;9.520;2023-12-22T03:37:58;6.13;;;1.90;;
4504;SDS011;2265;48.794;9.520;2023-12-22T03:40:25;1.30;;;1.30;;
4504;SDS011;2265;48.794;9.520;2023-12-22T03:43:18;6.50;;;1.60;;
4504;SDS011;2265;48.794;9.520;2023-12-22T03:45:47;2.53;;;1.40;;
4504;SDS011;2265;48.794;9.520;2023-12-22T03:48:14;1.90;;;1.30;;
4504;SDS011;2265;48.794;9.520;2023-12-22T03:50:41;2.70;;;1.50;;
4504;SDS011;2265;48.794;9.520;2023-12-22T03:53:08;1.83;;;1.50;;
4504;SDS011;2265;48.794;9.520;2023-12-22T03:55:35;5.23;;;1.90;;
4504;SDS011;2265;48.794;9.520;2023-12-22T03:58:02;2.27;;;1.67;;
4504;SDS011;2265;48.794;9.520;2023-12-22T04:00:32;3.23;;;1.50;;
4504;SDS011;2265;48.794;9.520;2023-12-22T04:03:01;5.27;;;1.40;;
4504;SDS011;2265;48.794;9.520;2023-12-22T04:05:28;3.50;;;1.30;;
4504;SDS011;2265;48.794;9.520;2023-12-22T04:07:55;5.83;;;1.70;;
4504;SDS011;2265;48.794;9.520;2023-12-22T04:10:23;2.03;;;1.20;;
4504;SDS011;2265;48.794;9.520;2023-12-22T04:12:50;1.20;;;1.10;;
4504;SDS011;2265;48.794;9.520;2023-12-22T04:15:17;4.43;;;1.60;;
4504;SDS011;2265;48.794;9.520;2023-12-22T04:17:44;3.10;;;1.63;;
4504;SDS011;2265;48.794;9.520;2023-12-22T04:20:12;4.73;;;1.50;;
4504;SDS011;2265;48.794;9.520;2023-12-22T04:22:39;2.90;;;1.47;;
4504;SDS011;2265;48.794;9.520;2023-12-22T04:25:06;3.10;;;1.30;;
4504;SDS011;2265;48.794;9.520;2023-12-22T04:27:34;2.70;;;1.30;;
4504;SDS011;2265;48.794;9.520;2023-12-22T04:30:01;1.50;;;1.20;;
4504;SDS011;2265;48.794;9.520;2023-12-22T04:32:29;1.30;;;1.30;;
4504;SDS011;2265;48.794;9.520;2023-12-22T04:34:55;1.50;;;1.30;;
4504;SDS011;2265;48.794;9.520;2023-12-22T04:37:24;3.10;;;1.63;;
4504;SDS011;2265;48.794;9.520;2023-12-22T04:39:51;1.40;;;1.23;;
4504;SDS011;2265;48.794;9.520;2023-12-22T04:42:18;2.80;;;1.40;;
4504;SDS011;2265;48.794;9.520;2023-12-22T04:44:45;1.87;;;1.20;;
4504;SDS011;2265;48.794;9.520;2023-12-22T04:47:14;1.73;;;1.53;;
4504;SDS011;2265;48.794;9.520;2023-12-22T04:49:41;1.93;;;1.50;;
4504;SDS011;2265;48.794;9.520;2023-12-22T04:52:09;6.50;;;1.63;;
4504;SDS011;2265;48.794;9.520;2023-12-22T04:54:38;10.43;;;1.50;;
4504;SDS011;2265;48.794;9.520;2023-12-22T04:57:05;2.40;;;1.23;;
4504;SDS011;2265;48.794;9.520;2023-12-22T04:59:32;5.37;;;1.60;;
4504;SDS011;2265;48.794;9.520;2023-12-22T05:01:59;5.27;;;1.90;;
4504;SDS011;2265;48.794;9.520;2023-12-22T05:04:27;4.00;;;1.57;;
4504;SDS011;2265;48.794;9.520;2023-12-22T05:06:54;4.00;;;1.70;;
4504;SDS011;2265;48.794;9.520;2023-12-22T05:09:21;2.57;;;1.67;;
4504;SDS011;2265;48.794;9.520;2023-12-22T05:11:51;6.10;;;1.53;;
4504;SDS011;2265;48.794;9.520;2023-12-22T05:14:18;4.43;;;1.47;;
4504;SDS011;2265;48.794;9.520;2023-12-22T05:16:45;9.60;;;1.73;;
4504;SDS011;2265;48.794;9.520;2023-12-22T05:19:12;5.90;;;1.60;;
4504;SDS011;2265;48.794;9.520;2023-12-22T05:21:39;4.27;;;1.60;;
4504;SDS011;2265;48.794;9.520;2023-12-22T05:24:06;3.47;;;1.30;;
4504;SDS011;2265;48.794;9.520;2023-12-22T05:26:33;1.40;;;1.30;;
4504;SDS011;2265;48.794;9.520;2023-12-22T05:29:02;3.13;;;1.47;;
4504;SDS011;2265;48.794;9.520;2023-12-22T05:31:29;1.50;;;1.27;;
4504;SDS011;2265;48.794;9.520;2023-12-22T05:34:03;4.93;;;1.93;;
4504;SDS011;2265;48.794;9.520;2023-12-22T05:36:31;2.80;;;1.60;;
4504;SDS011;2265;48.794;9.520;2023-12-22T05:38:58;3.63;;;1.60;;
4504;SDS011;2265;48.794;9.520;2023-12-22T05:41:25;3.93;;;1.63;;
4504;SDS011;2265;48.794;9.520;2023-12-22T05:43:52;3.40;;;1.63;;
4504;SDS011;2265;48.794;9.520;2023-12-22T05:46:21;7.63;;;2.37;;
4504;SDS011;2265;48.794;9.520;2023-12-22T05:48:48;3.20;;;1.77;;
4504;SDS011;2265;48.794;9.520;2023-12-22T05:51:15;1.40;;;1.30;;
4504;SDS011;2265;48.794;9.520;2023-12-22T05:53:43;3.50;;;1.60;;
4504;SDS011;2265;48.794;9.520;2023-12-22T05:56:16;4.70;;;1.60;;
4504;SDS011;2265;48.794;9.520;2023-12-22T05:58:45;8.23;;;2.13;;
4504;SDS011;2265;48.794;9.520;2023-12-22T06:01:14;3.90;;;1.70;;
4504;SDS011;2265;48.794;9.520;2023-12-22T06:03:43;3.70;;;1.57;;
4504;SDS011;2265;48.794;9.520;2023-12-22T06:06:10;4.30;;;1.70;;
4504;SDS011;2265;48.794;9.520;2023-12-22T06:08:37;3.20;;;1.80;;
4504;SDS011;2265;48.794;9.520;2023-12-22T06:11:05;8.47;;;2.33;;
4504;SDS011;2265;48.794;9.520;2023-12-22T06:13:34;3.00;;;1.57;;
4504;SDS011;2265;48.794;9.520;2023-12-22T06:16:01;2.30;;;1.53;;
4504;SDS011;2265;48.794;9.520;2023-12-22T06:18:28;5.37;;;1.77;;
4504;SDS011;2265;48.794;9.520;2023-12-22T06:20:56;5.43;;;1.83;;
4504;SDS011;2265;48.794;9.520;2023-12-22T06:23:23;3.17;;;1.70;;
4504;SDS011;2265;48.794;9.520;2023-12-22T06:25:50;5.23;;;1.83;;
4504;SDS011;2265;48.794;9.520;2023-12-22T06:28:18;3.43;;;1.87;;
4504;SDS011;2265;48.794;9.520;2023-12-22T06:30:45;5.63;;;2.30;;
4504;SDS011;2265;48.794;9.520;2023-12-22T06:33:12;3.93;;;1.70;;
4504;SDS011;2265;48.794;9.520;2023-12-22T06:35:40;4.60;;;1.83;;
4504;SDS011;2265;48.794;9.520;2023-12-22T06:38:08;1.80;;;1.50;;
4504;SDS011;2265;48.794;9.520;2023-12-22T06:40:36;4.83;;;1.60;;
4504;SDS011;2265;48.794;9.520;2023-12-22T06:43:03;5.03;;;1.70;;
4504;SDS011;2265;48.794;9.520;2023-12-22T06:45:30;5.17;;;2.10;;
4504;SDS011;2265;48.794;9.520;2023-12-22T06:47:57;4.40;;;1.90;;
4504;SDS011;2265;48.794;9.520;2023-12-22T06:50:24;2.70;;;1.77;;
4504;SDS011;2265;48.794;9.520;2023-12-22T06:52:52;6.83;;;1.83;;
4504;SDS011;2265;48.794;9.520;2023-12-22T06:55:20;4.60;;;1.90;;
4504;SDS011;2265;48.794;9.520;2023-12-22T06:57:48;4.50;;;1.57;;
4504;SDS011;2265;48.794;9.520;2023-12-22T07:00:16;3.43;;;1.70;;
4504;SDS011;2265;48.794;9.520;2023-12-22T07:02:43;3.07;;;1.37;;
4504;SDS011;2265;48.794;9.520;2023-12-22T07:05:33;2.60;;;1.60;;
4504;SDS011;2265;48.794;9.520;2023-12-22T07:08:03;2.97;;;1.60;;
4504;SDS011;2265;48.794;9.520;2023-12-22T07:10:32;3.37;;;1.70;;
4504;SDS011;2265;48.794;9.520;2023-12-22T07:12:59;5.27;;;1.97;;
4504;SDS011;2265;48.794;9.520;2023-12-22T07:15:26;2.83;;;1.70;;
4504;SDS011;2265;48.794;9.520;2023-12-22T07:17:54;2.80;;;1.70;;
4504;SDS011;2265;48.794;9.520;2023-12-22T07:20:24;3.43;;;1.60;;
4504;SDS011;2265;48.794;9.520;2023-12-22T07:22:52;10.57;;;1.77;;
4504;SDS011;2265;48.794;9.520;2023-12-22T07:25:19;2.20;;;1.60;;
4504;SDS011;2265;48.794;9.520;2023-12-22T07:27:47;1.90;;;1.40;;
4504;SDS011;2265;48.794;9.520;2023-12-22T07:30:15;3.10;;;1.63;;
4504;SDS011;2265;48.794;9.520;2023-12-22T07:32:45;2.63;;;1.50;;
4504;SDS011;2265;48.794;9.520;2023-12-22T07:35:17;3.87;;;2.03;;
4504;SDS011;2265;48.794;9.520;2023-12-22T07:37:44;2.60;;;1.70;;
4504;SDS011;2265;48.794;9.520;2023-12-22T07:40:12;4.37;;;1.90;;
4504;SDS011;2265;48.794;9.520;2023-12-22T07:42:39;4.30;;;1.60;;
4504;SDS011;2265;48.794;9.520;2023-12-22T07:45:08;4.77;;;1.63;;
4504;SDS011;2265;48.794;9.520;2023-12-22T07:47:35;4.57;;;1.87;;
4504;SDS011;2265;48.794;9.520;2023-12-22T07:50:03;3.23;;;1.57;;
4504;SDS011;2265;48.794;9.520;2023-12-22T07:52:33;4.30;;;1.70;;
4504;SDS011;2265;48.794;9.520;2023-12-22T07:55:03;3.83;;;1.50;;
4504;SDS011;2265;48.794;9.520;2023-12-22T07:57:32;2.10;;;1.63;;
4504;SDS011;2265;48.794;9.520;2023-12-22T07:59:59;3.53;;;1.53;;
4504;SDS011;2265;48.794;9.520;2023-12-22T08:02:28;2.10;;;1.43;;
4504;SDS011;2265;48.794;9.520;2023-12-22T08:04:58;3.50;;;1.40;;
4504;SDS011;2265;48.794;9.520;2023-12-22T08:07:25;4.40;;;1.43;;
4504;SDS011;2265;48.794;9.520;2023-12-22T08:09:52;4.50;;;1.40;;
4504;SDS011;2265;48.794;9.520;2023-12-22T08:12:19;3.93;;;1.70;;
4504;SDS011;2265;48.794;9.520;2023-12-22T08:14:47;1.93;;;1.37;;
4504;SDS011;2265;48.794;9.520;2023-12-22T08:17:14;2.60;;;1.37;;
4504;SDS011;2265;48.794;9.520;2023-12-22T08:19:44;3.00;;;1.67;;
4504;SDS011;2265;48.794;9.520;2023-12-22T08:22:11;6.20;;;1.83;;
4504;SDS011;2265;48.794;9.520;2023-12-22T08:24:38;2.80;;;1.50;;
4504;SDS011;2265;48.794;9.520;2023-12-22T08:27:08;3.47;;;2.03;;
4504;SDS011;2265;48.794;9.520;2023-12-22T08:29:42;1.73;;;1.47;;
4504;SDS011;2265;48.794;9.520;2023-12-22T08:32:10;2.80;;;1.67;;
4504;SDS011;2265;48.794;9.520;2023-12-22T08:34:37;3.53;;;1.60;;
4504;SDS011;2265;48.794;9.520;2023-12-22T08:37:06;5.03;;;1.70;;
4504;SDS011;2265;48.794;9.520;2023-12-22T08:39:33;4.43;;;1.77;;
4504;SDS011;2265;48.794;9.520;2023-12-22T08:42:00;5.40;;;1.93;;
4504;SDS011;2265;48.794;9.520;2023-12-22T08:44:27;4.10;;;1.90;;
4504;SDS011;2265;48.794;9.520;2023-12-22T08:46:54;8.60;;;1.57;;
4504;SDS011;2265;48.794;9.520;2023-12-22T08:49:21;7.13;;;1.50;;
4504;SDS011;2265;48.794;9.520;2023-12-22T08:51:48;3.57;;;1.90;;
4504;SDS011;2265;48.794;9.520;2023-12-22T08:54:20;6.07;;;1.70;;
4504;SDS011;2265;48.794;9.520;2023-12-22T08:56:48;4.27;;;1.60;;
4504;SDS011;2265;48.794;9.520;2023-12-22T08:59:15;2.57;;;1.50;;
4504;SDS011;2265;48.794;9.520;2023-12-22T09:01:42;4.10;;;1.70;;
4504;SDS011;2265;48.794;9.520;2023-12-22T09:04:10;2.30;;;1.63;;
4504;SDS011;2265;48.794;9.520;2023-12-22T09:06:38;3.10;;;1.77;;
4504;SDS011;2265;48.794;9.520;2023-12-22T09:09:05;4.20;;;1.60;;
4504;SDS011;2265;48.794;9.520;2023-12-22T09:11:34;1.83;;;1.40;;
4504;SDS011;2265;48.794;9.520;2023-12-22T09:14:01;2.47;;;1.60;;
4504;SDS011;2265;48.794;9.520;2023-12-22T09:16:27;5.03;;;1.93;;
4504;SDS011;2265;48.794;9.520;2023-12-22T09:18:54;5.70;;;1.80;;
4504;SDS011;2265;48.794;9.520;2023-12-22T09:21:21;8.03;;;1.90;;
4504;SDS011;2265;48.794;9.520;2023-12-22T09:23:48;3.03;;;1.60;;
4504;SDS011;2265;48.794;9.520;2023-12-22T09:26:15;7.50;;;1.67;;
4504;SDS011;2265;48.794;9.520;2023-12-22T09:28:44;9.90;;;1.80;;
4504;SDS011;2265;48.794;9.520;2023-12-22T09:31:15;4.27;;;1.90;;
4504;SDS011;2265;48.794;9.520;2023-12-22T09:33:42;4.17;;;1.80;;
4504;SDS011;2265;48.794;9.520;2023-12-22T09:36:17;4.70;;;1.70;;
4504;SDS011;2265;48.794;9.520;2023-12-22T09:38:44;4.77;;;1.80;;
4504;SDS011;2265;48.794;9.520;2023-12-22T09:41:11;7.10;;;1.90;;
4504;SDS011;2265;48.794;9.520;2023-12-22T09:43:38;2.77;;;1.80;;
4504;SDS011;2265;48.794;9.520;2023-12-22T09:46:07;7.73;;;1.80;;
4504;SDS011;2265;48.794;9.520;2023-12-22T09:48:36;2.83;;;1.90;;
4504;SDS011;2265;48.794;9.520;2023-12-22T09:51:05;11.43;;;3.03;;
4504;SDS011;2265;48.794;9.520;2023-12-22T09:53:33;2.80;;;1.70;;
4504;SDS011;2265;48.794;9.520;2023-12-22T09:56:02;6.80;;;2.37;;
4504;SDS011;2265;48.794;9.520;2023-12-22T09:58:29;4.30;;;1.97;;
4504;SDS011;2265;48.794;9.520;2023-12-22T10:00:57;4.60;;;2.10;;
4504;SDS011;2265;48.794;9.520;2023-12-22T10:03:28;10.20;;;2.20;;
4504;SDS011;2265;48.794;9.520;2023-12-22T10:05:56;3.97;;;2.17;;
4504;SDS011;2265;48.794;9.520;2023-12-22T10:08:24;4.97;;;2.10;;
4504;SDS011;2265;48.794;9.520;2023-12-22T10:10:52;10.73;;;2.13;;
4504;SDS011;2265;48.794;9.520;2023-12-22T10:13:21;2.80;;;1.53;;
4504;SDS011;2265;48.794;9.520;2023-12-22T10:15:49;6.97;;;1.60;;
4504;SDS011;2265;48.794;9.520;2023-12-22T10:18:16;8.97;;;2.13;;
4504;SDS011;2265;48.794;9.520;2023-12-22T10:20:45;5.50;;;2.00;;
4504;SDS011;2265;48.794;9.520;2023-12-22T10:23:13;6.40;;;1.90;;
4504;SDS011;2265;48.794;9.520;2023-12-22T10:25:40;12.93;;;2.40;;
4504;SDS011;2265;48.794;9.520;2023-12-22T10:28:10;13.67;;;2.10;;
4504;SDS011;2265;48.794;9.520;2023-12-22T10:30:39;5.60;;;2.23;;
4504;SDS011;2265;48.794;9.520;2023-12-22T10:33:07;2.50;;;1.70;;
4504;SDS011;2265;48.794;9.520;2023-12-22T10:35:34;3.13;;;1.57;;
4504;SDS011;2265;48.794;9.520;2023-12-22T10:38:02;6.63;;;1.70;;
4504;SDS011;2265;48.794;9.520;2023-12-22T10:40:30;5.93;;;1.80;;
4504;SDS011;2265;48.794;9.520;2023-12-22T10:42:58;4.40;;;1.80;;
4504;SDS011;2265;48.794;9.520;2023-12-22T10:45:26;4.77;;;1.73;;
4504;SDS011;2265;48.794;9.520;2023-12-22T10:47:56;9.80;;;1.60;;
4504;SDS011;2265;48.794;9.520;2023-12-22T10:50:24;3.37;;;1.40;;
4504;SDS011;2265;48.794;9.520;2023-12-22T10:52:54;5.20;;;1.83;;
4504;SDS011;2265;48.794;9.520;2023-12-22T10:55:22;6.27;;;2.03;;
4504;SDS011;2265;48.794;9.520;2023-12-22T10:57:50;8.17;;;2.27;;
4504;SDS011;2265;48.794;9.520;2023-12-22T11:00:19;5.50;;;1.87;;
4504;SDS011;2265;48.794;9.520;2023-12-22T11:02:47;8.53;;;2.03;;
4504;SDS011;2265;48.794;9.520;2023-12-22T11:05:15;9.23;;;1.73;;
4504;SDS011;2265;48.794;9.520;2023-12-22T11:07:46;5.30;;;1.97;;
4504;SDS011;2265;48.794;9.520;2023-12-22T11:10:16;7.57;;;1.73;;
4504;SDS011;2265;48.794;9.520;2023-12-22T11:12:48;5.00;;;2.00;;
4504;SDS011;2265;48.794;9.520;2023-12-22T11:15:16;3.97;;;1.70;;
4504;SDS011;2265;48.794;9.520;2023-12-22T11:17:46;3.53;;;1.63;;
4504;SDS011;2265;48.794;9.520;2023-12-22T11:20:15;3.13;;;1.60;;
4504;SDS011;2265;48.794;9.520;2023-12-22T11:22:42;8.80;;;1.83;;
4504;SDS011;2265;48.794;9.520;2023-12-22T11:25:10;3.37;;;1.83;;
4504;SDS011;2265;48.794;9.520;2023-12-22T11:27:40;2.10;;;1.50;;
4504;SDS011;2265;48.794;9.520;2023-12-22T11:30:11;5.80;;;1.60;;
4504;SDS011;2265;48.794;9.520;2023-12-22T11:32:39;3.20;;;1.40;;
4504;SDS011;2265;48.794;9.520;2023-12-22T11:35:06;3.80;;;1.63;;
4504;SDS011;2265;48.794;9.520;2023-12-22T11:37:34;3.50;;;1.57;;
4504;SDS011;2265;48.794;9.520;2023-12-22T11:40:02;2.50;;;1.33;;
4504;SDS011;2265;48.794;9.520;2023-12-22T11:42:31;6.40;;;1.60;;
4504;SDS011;2265;48.794;9.520;2023-12-22T11:45:02;2.30;;;1.63;;
4504;SDS011;2265;48.794;9.520;2023-12-22T11:47:31;3.67;;;1.70;;
4504;SDS011;2265;48.794;9.520;2023-12-22T11:49:59;3.53;;;1.57;;
4504;SDS011;2265;48.794;9.520;2023-12-22T11:52:27;4.00;;;1.67;;
4504;SDS011;2265;48.794;9.520;2023-12-22T11:54:54;5.53;;;1.47;;
4504;SDS011;2265;48.794;9.520;2023-12-22T11:57:37;2.70;;;1.40;;
4504;SDS011;2265;48.794;9.520;2023-12-22T12:00:06;2.90;;;1.50;;
4504;SDS011;2265;48.794;9.520;2023-12-22T12:02:37;3.37;;;1.33;;
4504;SDS011;2265;48.794;9.520;2023-12-22T12:05:06;3.00;;;1.50;;
4504;SDS011;2265;48.794;9.520;2023-12-22T12:07:41;3.27;;;1.40;;
4504;SDS011;2265;48.794;9.520;2023-12-22T12:10:10;5.90;;;1.63;;
4504;SDS011;2265;48.794;9.520;2023-12-22T12:12:39;2.00;;;1.20;;
4504;SDS011;2265;48.794;9.520;2023-12-22T12:15:07;3.47;;;1.30;;
4504;SDS011;2265;48.794;9.520;2023-12-22T12:20:11;1.60;;;1.30;;
4504;SDS011;2265;48.794;9.520;2023-12-22T12:22:39;1.97;;;1.40;;
4504;SDS011;2265;48.794;9.520;2023-12-22T12:25:09;2.10;;;1.40;;
4504;SDS011;2265;48.794;9.520;2023-12-22T12:27:37;2.20;;;1.33;;
4504;SDS011;2265;48.794;9.520;2023-12-22T12:30:11;1.40;;;1.23;;
4504;SDS011;2265;48.794;9.520;2023-12-22T12:32:41;1.77;;;1.20;;
4504;SDS011;2265;48.794;9.520;2023-12-22T12:35:11;2.83;;;1.30;;
4504;SDS011;2265;48.794;9.520;2023-12-22T12:37:39;7.20;;;1.33;;
4504;SDS011;2265;48.794;9.520;2023-12-22T12:40:10;2.90;;;1.40;;
4504;SDS011;2265;48.794;9.520;2023-12-22T12:42:38;2.27;;;1.43;;
4504;SDS011;2265;48.794;9.520;2023-12-22T12:45:06;1.60;;;1.43;;
4504;SDS011;2265;48.794;9.520;2023-12-22T12:47:34;2.13;;;1.60;;
4504;SDS011;2265;48.794;9.520;2023-12-22T12:50:01;1.40;;;1.30;;
4504;SDS011;2265;48.794;9.520;2023-12-22T12:52:30;3.20;;;1.70;;
4504;SDS011;2265;48.794;9.520;2023-12-22T12:54:57;1.70;;;1.40;;
4504;SDS011;2265;48.794;9.520;2023-12-22T12:57:26;1.40;;;1.30;;
4504;SDS011;2265;48.794;9.520;2023-12-22T12:59:53;2.20;;;1.60;;
4504;SDS011;2265;48.794;9.520;2023-12-22T13:02:20;1.70;;;1.20;;
4504;SDS011;2265;48.794;9.520;2023-12-22T13:04:49;1.30;;;1.30;;
4504;SDS011;2265;48.794;9.520;2023-12-22T13:07:23;1.97;;;1.30;;
4504;SDS011;2265;48.794;9.520;2023-12-22T13:09:52;2.70;;;1.37;;
4504;SDS011;2265;48.794;9.520;2023-12-22T13:12:22;1.20;;;1.20;;
4504;SDS011;2265;48.794;9.520;2023-12-22T13:14:49;1.50;;;1.23;;
4504;SDS011;2265;48.794;9.520;2023-12-22T13:17:16;2.17;;;1.20;;
4504;SDS011;2265;48.794;9.520;2023-12-22T13:19:43;1.60;;;1.40;;
4504;SDS011;2265;48.794;9.520;2023-12-22T13:22:11;1.30;;;1.23;;
4504;SDS011;2265;48.794;9.520;2023-12-22T13:24:39;1.87;;;1.30;;
4504;SDS011;2265;48.794;9.520;2023-12-22T13:27:08;2.30;;;1.37;;
4504;SDS011;2265;48.794;9.520;2023-12-22T13:29:42;1.60;;;1.30;;
4504;SDS011;2265;48.794;9.520;2023-12-22T13:32:14;4.33;;;1.20;;
4504;SDS011;2265;48.794;9.520;2023-12-22T13:34:46;1.10;;;1.10;;
4504;SDS011;2265;48.794;9.520;2023-12-22T13:37:16;1.30;;;1.17;;
4504;SDS011;2265;48.794;9.520;2023-12-22T13:39:44;1.60;;;1.20;;
4504;SDS011;2265;48.794;9.520;2023-12-22T13:42:16;1.93;;;1.30;;
4504;SDS011;2265;48.794;9.520;2023-12-22T13:44:44;1.43;;;1.23;;
4504;SDS011;2265;48.794;9.520;2023-12-22T13:47:14;1.40;;;1.03;;
4504;SDS011;2265;48.794;9.520;2023-12-22T13:49:42;1.50;;;1.33;;
4504;SDS011;2265;48.794;9.520;2023-12-22T13:52:23;1.30;;;1.03;;
4504;SDS011;2265;48.794;9.520;2023-12-22T13:54:52;1.20;;;1.17;;
4504;SDS011;2265;48.794;9.520;2023-12-22T13:57:23;1.30;;;1.10;;
4504;SDS011;2265;48.794;9.520;2023-12-22T13:59:50;1.60;;;1.10;;
4504;SDS011;2265;48.794;9.520;2023-12-22T14:02:21;1.10;;;1.03;;
4504;SDS011;2265;48.794;9.520;2023-12-22T14:04:48;1.20;;;1.20;;
4504;SDS011;2265;48.794;9.520;2023-12-22T14:07:16;1.53;;;1.30;;
4504;SDS011;2265;48.794;9.520;2023-12-22T14:09:44;1.70;;;1.20;;
4504;SDS011;2265;48.794;9.520;2023-12-22T14:12:13;1.20;;;1.10;;
4504;SDS011;2265;48.794;9.520;2023-12-22T14:14:42;1.20;;;1.13;;
4504;SDS011;2265;48.794;9.520;2023-12-22T14:17:10;1.60;;;1.13;;
4504;SDS011;2265;48.794;9.520;2023-12-22T14:19:37;1.63;;;1.20;;
4504;SDS011;2265;48.794;9.520;2023-12-22T14:22:04;1.20;;;1.10;;
4504;SDS011;2265;48.794;9.520;2023-12-22T14:24:31;1.30;;;1.10;;
4504;SDS011;2265;48.794;9.520;2023-12-22T14:27:00;1.20;;;1.10;;
4504;SDS011;2265;48.794;9.520;2023-12-22T14:29:28;1.50;;;1.00;;
4504;SDS011;2265;48.794;9.520;2023-12-22T14:31:56;1.30;;;1.20;;
4504;SDS011;2265;48.794;9.520;2023-12-22T14:34:23;1.33;;;1.00;;
4504;SDS011;2265;48.794;9.520;2023-12-22T14:36:51;1.40;;;1.13;;
4504;SDS011;2265;48.794;9.520;2023-12-22T14:39:18;1.60;;;1.30;;
4504;SDS011;2265;48.794;9.520;2023-12-22T14:41:48;1.83;;;1.33;;
4504;SDS011;2265;48.794;9.520;2023-12-22T14:44:15;2.07;;;1.27;;
4504;SDS011;2265;48.794;9.520;2023-12-22T14:49:19;1.50;;;1.20;;
4504;SDS011;2265;48.794;9.520;2023-12-22T14:51:46;1.20;;;1.00;;
4504;SDS011;2265;48.794;9.520;2023-12-22T14:54:16;1.20;;;1.10;;
4504;SDS011;2265;48.794;9.520;2023-12-22T14:56:43;1.20;;;1.10;;
4504;SDS011;2265;48.794;9.520;2023-12-22T14:59:11;1.30;;;1.10;;
4504;SDS011;2265;48.794;9.520;2023-12-22T15:01:40;1.40;;;1.30;;
4504;SDS011;2265;48.794;9.520;2023-12-22T15:04:07;1.30;;;1.20;;
4504;SDS011;2265;48.794;9.520;2023-12-22T15:06:38;1.80;;;1.40;;
4504;SDS011;2265;48.794;9.520;2023-12-22T15:09:06;2.33;;;1.30;;
4504;SDS011;2265;48.794;9.520;2023-12-22T15:11:33;1.20;;;1.10;;
4504;SDS011;2265;48.794;9.520;2023-12-22T15:14:06;1.10;;;1.07;;
4504;SDS011;2265;48.794;9.520;2023-12-22T15:16:33;1.93;;;1.27;;
4504;SDS011;2265;48.794;9.520;2023-12-22T15:19:04;1.57;;;1.27;;
4504;SDS011;2265;48.794;9.520;2023-12-22T15:21:31;1.40;;;1.20;;
4504;SDS011;2265;48.794;9.520;2023-12-22T15:23:59;1.37;;;1.10;;
4504;SDS011;2265;48.794;9.520;2023-12-22T15:26:28;1.43;;;1.30;;
4504;SDS011;2265;48.794;9.520;2023-12-22T15:28:55;1.50;;;1.20;;